sensor_id;sensor_type;location;lat;lon;timestamp;P1;durP1;ratioP1;P2;durP2;ratioP2
65996;SDS011;52765;52.258;21.052;2023-08-06T00:02:00;34.35;;;16.30;;
65996;SDS011;52765;52.258;21.052;2023-08-06T00:04:25;36.05;;;16.25;;
65996;SDS011;52765;52.258;21.052;2023-08-06T00:06:50;35.85;;;16.75;;
65996;SDS011;52765;52.258;21.052;2023-08-06T00:09:16;32.78;;;16.02;;
65996;SDS011;52765;52.258;21.052;2023-08-06T00:11:41;30.77;;;16.50;;
65996;SDS011;52765;52.258;21.052;2023-08-06T00:14:08;34.30;;;15.35;;
65996;SDS011;52765;52.258;21.052;2023-08-06T00:16:34;36.92;;;16.05;;
65996;SDS011;52765;52.258;21.052;2023-08-06T00:19:00;31.05;;;16.13;;
65996;SDS011;52765;52.258;21.052;2023-08-06T00:21:25;33.90;;;15.55;;
65996;SDS011;52765;52.258;21.052;2023-08-06T00:23:51;31.05;;;14.45;;
65996;SDS011;52765;52.258;21.052;2023-08-06T00:26:17;34.42;;;16.42;;
65996;SDS011;52765;52.258;21.052;2023-08-06T00:28:42;41.83;;;15.73;;
65996;SDS011;52765;52.258;21.052;2023-08-06T00:31:08;33.50;;;15.85;;
65996;SDS011;52765;52.258;21.052;2023-08-06T00:33:33;33.10;;;15.43;;
65996;SDS011;52765;52.258;21.052;2023-08-06T00:35:58;34.10;;;15.85;;
65996;SDS011;52765;52.258;21.052;2023-08-06T00:38:24;26.58;;;15.57;;
65996;SDS011;52765;52.258;21.052;2023-08-06T00:40:49;37.65;;;17.08;;
65996;SDS011;52765;52.258;21.052;2023-08-06T00:43:15;32.65;;;15.80;;
65996;SDS011;52765;52.258;21.052;2023-08-06T00:45:40;30.73;;;15.52;;
65996;SDS011;52765;52.258;21.052;2023-08-06T00:48:06;29.90;;;15.82;;
65996;SDS011;52765;52.258;21.052;2023-08-06T00:50:32;31.83;;;15.57;;
65996;SDS011;52765;52.258;21.052;2023-08-06T00:52:57;26.85;;;14.55;;
65996;SDS011;52765;52.258;21.052;2023-08-06T00:55:24;30.00;;;15.60;;
65996;SDS011;52765;52.258;21.052;2023-08-06T00:57:50;27.55;;;15.10;;
65996;SDS011;52765;52.258;21.052;2023-08-06T01:00:17;25.70;;;14.55;;
65996;SDS011;52765;52.258;21.052;2023-08-06T01:02:44;22.58;;;13.25;;
65996;SDS011;52765;52.258;21.052;2023-08-06T01:05:11;18.67;;;12.40;;
65996;SDS011;52765;52.258;21.052;2023-08-06T01:10:41;19.00;;;12.10;;
65996;SDS011;52765;52.258;21.052;2023-08-06T01:16:14;19.10;;;11.90;;
65996;SDS011;52765;52.258;21.052;2023-08-06T01:18:42;23.65;;;13.15;;
65996;SDS011;52765;52.258;21.052;2023-08-06T01:21:11;18.27;;;12.00;;
65996;SDS011;52765;52.258;21.052;2023-08-06T01:23:37;18.88;;;12.07;;
65996;SDS011;52765;52.258;21.052;2023-08-06T01:26:05;16.85;;;11.38;;
65996;SDS011;52765;52.258;21.052;2023-08-06T01:28:41;16.42;;;12.40;;
65996;SDS011;52765;52.258;21.052;2023-08-06T01:31:10;17.10;;;11.10;;
65996;SDS011;52765;52.258;21.052;2023-08-06T01:33:43;16.23;;;11.65;;
65996;SDS011;52765;52.258;21.052;2023-08-06T01:36:10;16.10;;;11.35;;
65996;SDS011;52765;52.258;21.052;2023-08-06T01:38:36;16.92;;;11.68;;
65996;SDS011;52765;52.258;21.052;2023-08-06T01:41:01;17.98;;;11.63;;
65996;SDS011;52765;52.258;21.052;2023-08-06T01:43:27;16.25;;;11.93;;
65996;SDS011;52765;52.258;21.052;2023-08-06T01:45:52;17.10;;;11.20;;
65996;SDS011;52765;52.258;21.052;2023-08-06T01:48:17;17.40;;;11.27;;
65996;SDS011;52765;52.258;21.052;2023-08-06T01:50:43;16.48;;;11.55;;
65996;SDS011;52765;52.258;21.052;2023-08-06T01:53:08;16.73;;;11.57;;
65996;SDS011;52765;52.258;21.052;2023-08-06T01:55:34;16.10;;;10.70;;
65996;SDS011;52765;52.258;21.052;2023-08-06T01:57:59;15.65;;;11.60;;
65996;SDS011;52765;52.258;21.052;2023-08-06T02:00:25;14.32;;;10.45;;
65996;SDS011;52765;52.258;21.052;2023-08-06T02:02:50;16.25;;;10.48;;
65996;SDS011;52765;52.258;21.052;2023-08-06T02:05:15;16.38;;;10.55;;
65996;SDS011;52765;52.258;21.052;2023-08-06T02:07:41;18.95;;;11.63;;
65996;SDS011;52765;52.258;21.052;2023-08-06T02:10:06;15.77;;;9.93;;
65996;SDS011;52765;52.258;21.052;2023-08-06T02:12:32;14.10;;;10.07;;
65996;SDS011;52765;52.258;21.052;2023-08-06T02:14:58;14.60;;;9.82;;
65996;SDS011;52765;52.258;21.052;2023-08-06T02:17:23;14.57;;;9.90;;
65996;SDS011;52765;52.258;21.052;2023-08-06T02:19:48;17.17;;;10.77;;
65996;SDS011;52765;52.258;21.052;2023-08-06T02:22:14;13.50;;;9.60;;
65996;SDS011;52765;52.258;21.052;2023-08-06T02:24:39;17.48;;;10.32;;
65996;SDS011;52765;52.258;21.052;2023-08-06T02:27:05;15.70;;;10.02;;
65996;SDS011;52765;52.258;21.052;2023-08-06T02:29:30;14.90;;;9.63;;
65996;SDS011;52765;52.258;21.052;2023-08-06T02:31:56;17.45;;;10.52;;
65996;SDS011;52765;52.258;21.052;2023-08-06T02:34:21;15.82;;;10.25;;
65996;SDS011;52765;52.258;21.052;2023-08-06T02:36:46;18.85;;;10.13;;
65996;SDS011;52765;52.258;21.052;2023-08-06T02:39:12;14.77;;;10.23;;
65996;SDS011;52765;52.258;21.052;2023-08-06T02:41:38;16.35;;;10.25;;
65996;SDS011;52765;52.258;21.052;2023-08-06T02:44:04;16.83;;;10.82;;
65996;SDS011;52765;52.258;21.052;2023-08-06T02:46:30;14.77;;;9.98;;
65996;SDS011;52765;52.258;21.052;2023-08-06T02:48:55;15.88;;;10.18;;
65996;SDS011;52765;52.258;21.052;2023-08-06T02:51:21;17.70;;;11.18;;
65996;SDS011;52765;52.258;21.052;2023-08-06T02:53:47;17.85;;;10.95;;
65996;SDS011;52765;52.258;21.052;2023-08-06T02:56:13;16.60;;;9.50;;
65996;SDS011;52765;52.258;21.052;2023-08-06T02:58:38;18.90;;;10.93;;
65996;SDS011;52765;52.258;21.052;2023-08-06T03:01:04;14.38;;;9.73;;
65996;SDS011;52765;52.258;21.052;2023-08-06T03:03:31;13.50;;;9.07;;
65996;SDS011;52765;52.258;21.052;2023-08-06T03:05:57;13.77;;;9.50;;
65996;SDS011;52765;52.258;21.052;2023-08-06T03:08:23;16.05;;;10.13;;
65996;SDS011;52765;52.258;21.052;2023-08-06T03:10:49;19.85;;;11.05;;
65996;SDS011;52765;52.258;21.052;2023-08-06T03:13:16;16.17;;;10.85;;
65996;SDS011;52765;52.258;21.052;2023-08-06T03:15:41;15.68;;;10.18;;
65996;SDS011;52765;52.258;21.052;2023-08-06T03:18:07;18.73;;;11.65;;
65996;SDS011;52765;52.258;21.052;2023-08-06T03:20:32;16.75;;;11.02;;
65996;SDS011;52765;52.258;21.052;2023-08-06T03:22:57;18.75;;;11.63;;
65996;SDS011;52765;52.258;21.052;2023-08-06T03:25:23;15.85;;;11.10;;
65996;SDS011;52765;52.258;21.052;2023-08-06T03:27:48;18.80;;;11.90;;
65996;SDS011;52765;52.258;21.052;2023-08-06T03:30:14;15.57;;;10.90;;
65996;SDS011;52765;52.258;21.052;2023-08-06T03:32:39;23.20;;;13.85;;
65996;SDS011;52765;52.258;21.052;2023-08-06T03:35:05;16.83;;;12.18;;
65996;SDS011;52765;52.258;21.052;2023-08-06T03:37:31;20.33;;;12.95;;
65996;SDS011;52765;52.258;21.052;2023-08-06T03:39:56;19.23;;;12.48;;
65996;SDS011;52765;52.258;21.052;2023-08-06T03:42:21;20.05;;;12.80;;
65996;SDS011;52765;52.258;21.052;2023-08-06T03:44:47;15.57;;;10.95;;
65996;SDS011;52765;52.258;21.052;2023-08-06T03:47:12;18.15;;;11.93;;
65996;SDS011;52765;52.258;21.052;2023-08-06T03:49:38;23.90;;;14.13;;
65996;SDS011;52765;52.258;21.052;2023-08-06T03:52:04;20.27;;;13.48;;
65996;SDS011;52765;52.258;21.052;2023-08-06T03:54:30;22.20;;;14.07;;
65996;SDS011;52765;52.258;21.052;2023-08-06T03:56:56;20.23;;;13.25;;
65996;SDS011;52765;52.258;21.052;2023-08-06T03:59:21;21.45;;;14.82;;
65996;SDS011;52765;52.258;21.052;2023-08-06T04:01:46;20.58;;;13.90;;
65996;SDS011;52765;52.258;21.052;2023-08-06T04:04:12;22.98;;;14.88;;
65996;SDS011;52765;52.258;21.052;2023-08-06T04:06:37;21.38;;;14.50;;
65996;SDS011;52765;52.258;21.052;2023-08-06T04:09:03;26.05;;;16.23;;
65996;SDS011;52765;52.258;21.052;2023-08-06T04:11:28;20.70;;;14.23;;
65996;SDS011;52765;52.258;21.052;2023-08-06T04:13:54;32.80;;;17.60;;
65996;SDS011;52765;52.258;21.052;2023-08-06T04:16:20;23.88;;;15.65;;
65996;SDS011;52765;52.258;21.052;2023-08-06T04:18:47;22.35;;;14.27;;
65996;SDS011;52765;52.258;21.052;2023-08-06T04:21:12;25.55;;;17.05;;
65996;SDS011;52765;52.258;21.052;2023-08-06T04:23:38;26.50;;;16.60;;
65996;SDS011;52765;52.258;21.052;2023-08-06T04:26:03;27.10;;;17.55;;
65996;SDS011;52765;52.258;21.052;2023-08-06T04:28:29;28.35;;;17.40;;
65996;SDS011;52765;52.258;21.052;2023-08-06T04:30:55;25.98;;;16.73;;
65996;SDS011;52765;52.258;21.052;2023-08-06T04:33:20;23.98;;;16.95;;
65996;SDS011;52765;52.258;21.052;2023-08-06T04:35:46;26.33;;;16.42;;
65996;SDS011;52765;52.258;21.052;2023-08-06T04:38:11;22.27;;;15.38;;
65996;SDS011;52765;52.258;21.052;2023-08-06T04:40:37;24.77;;;16.38;;
65996;SDS011;52765;52.258;21.052;2023-08-06T04:43:02;24.40;;;15.77;;
65996;SDS011;52765;52.258;21.052;2023-08-06T04:45:28;26.33;;;16.25;;
65996;SDS011;52765;52.258;21.052;2023-08-06T04:47:53;21.20;;;14.35;;
65996;SDS011;52765;52.258;21.052;2023-08-06T04:50:21;23.17;;;15.23;;
65996;SDS011;52765;52.258;21.052;2023-08-06T04:52:47;22.77;;;15.90;;
65996;SDS011;52765;52.258;21.052;2023-08-06T04:55:12;18.75;;;13.63;;
65996;SDS011;52765;52.258;21.052;2023-08-06T04:57:38;21.58;;;15.43;;
65996;SDS011;52765;52.258;21.052;2023-08-06T05:00:03;22.65;;;15.25;;
65996;SDS011;52765;52.258;21.052;2023-08-06T05:02:30;20.70;;;14.68;;
65996;SDS011;52765;52.258;21.052;2023-08-06T05:04:57;19.95;;;14.85;;
65996;SDS011;52765;52.258;21.052;2023-08-06T05:07:23;19.38;;;14.55;;
65996;SDS011;52765;52.258;21.052;2023-08-06T05:09:48;21.00;;;15.15;;
65996;SDS011;52765;52.258;21.052;2023-08-06T05:12:14;23.38;;;15.60;;
65996;SDS011;52765;52.258;21.052;2023-08-06T05:14:39;17.27;;;13.77;;
65996;SDS011;52765;52.258;21.052;2023-08-06T05:17:05;19.05;;;13.60;;
65996;SDS011;52765;52.258;21.052;2023-08-06T05:19:30;17.73;;;13.65;;
65996;SDS011;52765;52.258;21.052;2023-08-06T05:21:56;17.08;;;12.55;;
65996;SDS011;52765;52.258;21.052;2023-08-06T05:24:21;17.45;;;12.75;;
65996;SDS011;52765;52.258;21.052;2023-08-06T05:26:46;14.93;;;12.63;;
65996;SDS011;52765;52.258;21.052;2023-08-06T05:29:12;17.63;;;13.10;;
65996;SDS011;52765;52.258;21.052;2023-08-06T05:31:38;18.98;;;13.95;;
65996;SDS011;52765;52.258;21.052;2023-08-06T05:34:03;20.30;;;13.45;;
65996;SDS011;52765;52.258;21.052;2023-08-06T05:36:29;17.77;;;13.40;;
65996;SDS011;52765;52.258;21.052;2023-08-06T05:38:54;15.55;;;11.85;;
65996;SDS011;52765;52.258;21.052;2023-08-06T05:41:19;18.58;;;12.60;;
65996;SDS011;52765;52.258;21.052;2023-08-06T05:43:47;16.27;;;12.48;;
65996;SDS011;52765;52.258;21.052;2023-08-06T05:46:12;13.43;;;10.88;;
65996;SDS011;52765;52.258;21.052;2023-08-06T05:48:38;15.93;;;12.73;;
65996;SDS011;52765;52.258;21.052;2023-08-06T05:51:06;22.70;;;13.73;;
65996;SDS011;52765;52.258;21.052;2023-08-06T05:53:31;17.33;;;12.63;;
65996;SDS011;52765;52.258;21.052;2023-08-06T05:55:57;15.15;;;11.75;;
65996;SDS011;52765;52.258;21.052;2023-08-06T05:58:22;14.38;;;11.70;;
65996;SDS011;52765;52.258;21.052;2023-08-06T06:00:51;18.20;;;13.35;;
65996;SDS011;52765;52.258;21.052;2023-08-06T06:03:16;18.38;;;13.35;;
65996;SDS011;52765;52.258;21.052;2023-08-06T06:05:42;13.23;;;11.15;;
65996;SDS011;52765;52.258;21.052;2023-08-06T06:08:07;15.48;;;10.95;;
65996;SDS011;52765;52.258;21.052;2023-08-06T06:10:35;15.82;;;11.80;;
65996;SDS011;52765;52.258;21.052;2023-08-06T06:13:01;14.95;;;12.50;;
65996;SDS011;52765;52.258;21.052;2023-08-06T06:15:26;14.80;;;11.65;;
65996;SDS011;52765;52.258;21.052;2023-08-06T06:17:52;12.55;;;10.75;;
65996;SDS011;52765;52.258;21.052;2023-08-06T06:20:17;16.65;;;12.45;;
65996;SDS011;52765;52.258;21.052;2023-08-06T06:22:43;14.35;;;11.63;;
65996;SDS011;52765;52.258;21.052;2023-08-06T06:25:08;16.15;;;10.43;;
65996;SDS011;52765;52.258;21.052;2023-08-06T06:27:35;12.88;;;9.48;;
65996;SDS011;52765;52.258;21.052;2023-08-06T06:30:00;13.20;;;10.30;;
65996;SDS011;52765;52.258;21.052;2023-08-06T06:32:26;11.85;;;9.77;;
65996;SDS011;52765;52.258;21.052;2023-08-06T06:34:51;12.68;;;10.32;;
65996;SDS011;52765;52.258;21.052;2023-08-06T06:37:17;15.43;;;10.27;;
65996;SDS011;52765;52.258;21.052;2023-08-06T06:39:42;12.60;;;9.73;;
65996;SDS011;52765;52.258;21.052;2023-08-06T06:42:09;13.65;;;9.02;;
65996;SDS011;52765;52.258;21.052;2023-08-06T06:44:34;19.88;;;9.27;;
65996;SDS011;52765;52.258;21.052;2023-08-06T06:47:00;12.70;;;9.55;;
65996;SDS011;52765;52.258;21.052;2023-08-06T06:49:25;15.25;;;10.35;;
65996;SDS011;52765;52.258;21.052;2023-08-06T06:51:50;13.70;;;9.70;;
65996;SDS011;52765;52.258;21.052;2023-08-06T06:54:19;12.02;;;9.10;;
65996;SDS011;52765;52.258;21.052;2023-08-06T06:56:44;12.27;;;9.20;;
65996;SDS011;52765;52.258;21.052;2023-08-06T06:59:09;12.95;;;9.70;;
65996;SDS011;52765;52.258;21.052;2023-08-06T07:01:35;17.48;;;10.63;;
65996;SDS011;52765;52.258;21.052;2023-08-06T07:04:00;14.13;;;9.43;;
65996;SDS011;52765;52.258;21.052;2023-08-06T07:06:29;14.32;;;9.40;;
65996;SDS011;52765;52.258;21.052;2023-08-06T07:08:55;13.07;;;9.43;;
65996;SDS011;52765;52.258;21.052;2023-08-06T07:11:21;11.98;;;9.43;;
65996;SDS011;52765;52.258;21.052;2023-08-06T07:13:46;12.10;;;9.75;;
65996;SDS011;52765;52.258;21.052;2023-08-06T07:16:12;10.18;;;8.95;;
65996;SDS011;52765;52.258;21.052;2023-08-06T07:18:37;14.80;;;9.45;;
65996;SDS011;52765;52.258;21.052;2023-08-06T07:21:02;16.92;;;11.32;;
65996;SDS011;52765;52.258;21.052;2023-08-06T07:23:28;10.95;;;9.50;;
65996;SDS011;52765;52.258;21.052;2023-08-06T07:25:53;13.43;;;9.18;;
65996;SDS011;52765;52.258;21.052;2023-08-06T07:28:19;10.38;;;8.85;;
65996;SDS011;52765;52.258;21.052;2023-08-06T07:30:45;12.98;;;9.15;;
65996;SDS011;52765;52.258;21.052;2023-08-06T07:33:11;11.07;;;9.45;;
65996;SDS011;52765;52.258;21.052;2023-08-06T07:35:37;13.27;;;9.77;;
65996;SDS011;52765;52.258;21.052;2023-08-06T07:38:03;15.52;;;9.13;;
65996;SDS011;52765;52.258;21.052;2023-08-06T07:40:28;14.85;;;9.50;;
65996;SDS011;52765;52.258;21.052;2023-08-06T07:42:54;15.85;;;9.65;;
65996;SDS011;52765;52.258;21.052;2023-08-06T07:45:20;14.10;;;9.32;;
65996;SDS011;52765;52.258;21.052;2023-08-06T07:47:45;13.18;;;8.60;;
65996;SDS011;52765;52.258;21.052;2023-08-06T07:50:11;13.77;;;9.70;;
65996;SDS011;52765;52.258;21.052;2023-08-06T07:52:38;15.82;;;10.90;;
65996;SDS011;52765;52.258;21.052;2023-08-06T07:55:03;15.60;;;11.65;;
65996;SDS011;52765;52.258;21.052;2023-08-06T07:57:33;14.88;;;9.32;;
65996;SDS011;52765;52.258;21.052;2023-08-06T07:59:59;10.60;;;9.50;;
65996;SDS011;52765;52.258;21.052;2023-08-06T08:02:25;12.52;;;9.48;;
65996;SDS011;52765;52.258;21.052;2023-08-06T08:04:51;11.57;;;8.30;;
65996;SDS011;52765;52.258;21.052;2023-08-06T08:07:16;13.07;;;8.82;;
65996;SDS011;52765;52.258;21.052;2023-08-06T08:09:44;12.45;;;9.00;;
65996;SDS011;52765;52.258;21.052;2023-08-06T08:12:10;11.75;;;9.13;;
65996;SDS011;52765;52.258;21.052;2023-08-06T08:14:35;11.27;;;8.07;;
65996;SDS011;52765;52.258;21.052;2023-08-06T08:17:04;13.48;;;8.20;;
65996;SDS011;52765;52.258;21.052;2023-08-06T08:19:33;11.35;;;9.43;;
65996;SDS011;52765;52.258;21.052;2023-08-06T08:21:58;15.20;;;10.60;;
65996;SDS011;52765;52.258;21.052;2023-08-06T08:24:24;13.73;;;10.88;;
65996;SDS011;52765;52.258;21.052;2023-08-06T08:26:50;14.57;;;9.13;;
65996;SDS011;52765;52.258;21.052;2023-08-06T08:29:17;16.05;;;8.65;;
65996;SDS011;52765;52.258;21.052;2023-08-06T08:31:44;11.05;;;8.60;;
65996;SDS011;52765;52.258;21.052;2023-08-06T08:34:10;11.95;;;9.93;;
65996;SDS011;52765;52.258;21.052;2023-08-06T08:36:37;11.75;;;9.00;;
65996;SDS011;52765;52.258;21.052;2023-08-06T08:39:02;13.50;;;8.20;;
65996;SDS011;52765;52.258;21.052;2023-08-06T08:41:29;15.40;;;8.88;;
65996;SDS011;52765;52.258;21.052;2023-08-06T08:43:56;11.05;;;8.38;;
65996;SDS011;52765;52.258;21.052;2023-08-06T08:46:24;12.60;;;7.68;;
65996;SDS011;52765;52.258;21.052;2023-08-06T08:48:54;10.25;;;8.15;;
65996;SDS011;52765;52.258;21.052;2023-08-06T08:51:22;12.55;;;7.80;;
65996;SDS011;52765;52.258;21.052;2023-08-06T08:53:48;14.85;;;9.05;;
65996;SDS011;52765;52.258;21.052;2023-08-06T08:56:17;11.02;;;8.60;;
65996;SDS011;52765;52.258;21.052;2023-08-06T08:58:45;10.48;;;7.75;;
65996;SDS011;52765;52.258;21.052;2023-08-06T09:01:10;11.20;;;7.90;;
65996;SDS011;52765;52.258;21.052;2023-08-06T09:03:36;10.90;;;8.23;;
65996;SDS011;52765;52.258;21.052;2023-08-06T09:06:05;13.13;;;8.02;;
65996;SDS011;52765;52.258;21.052;2023-08-06T09:08:36;9.52;;;8.13;;
65996;SDS011;52765;52.258;21.052;2023-08-06T09:11:04;13.73;;;8.50;;
65996;SDS011;52765;52.258;21.052;2023-08-06T09:13:34;11.65;;;8.48;;
65996;SDS011;52765;52.258;21.052;2023-08-06T09:16:01;10.13;;;7.60;;
65996;SDS011;52765;52.258;21.052;2023-08-06T09:18:27;12.85;;;8.45;;
65996;SDS011;52765;52.258;21.052;2023-08-06T09:20:55;11.38;;;9.57;;
65996;SDS011;52765;52.258;21.052;2023-08-06T09:23:27;11.15;;;8.55;;
65996;SDS011;52765;52.258;21.052;2023-08-06T09:25:57;11.43;;;8.55;;
65996;SDS011;52765;52.258;21.052;2023-08-06T09:28:23;9.95;;;7.65;;
65996;SDS011;52765;52.258;21.052;2023-08-06T09:30:49;15.57;;;7.45;;
65996;SDS011;52765;52.258;21.052;2023-08-06T09:33:18;10.30;;;7.57;;
65996;SDS011;52765;52.258;21.052;2023-08-06T09:35:47;9.48;;;7.25;;
65996;SDS011;52765;52.258;21.052;2023-08-06T09:38:12;11.95;;;7.55;;
65996;SDS011;52765;52.258;21.052;2023-08-06T09:40:38;12.02;;;7.05;;
65996;SDS011;52765;52.258;21.052;2023-08-06T09:43:05;12.20;;;8.60;;
65996;SDS011;52765;52.258;21.052;2023-08-06T09:45:31;13.57;;;7.88;;
65996;SDS011;52765;52.258;21.052;2023-08-06T09:48:06;9.50;;;7.18;;
65996;SDS011;52765;52.258;21.052;2023-08-06T09:50:34;10.20;;;7.28;;
65996;SDS011;52765;52.258;21.052;2023-08-06T09:53:02;10.07;;;7.35;;
65996;SDS011;52765;52.258;21.052;2023-08-06T09:55:28;9.02;;;6.97;;
65996;SDS011;52765;52.258;21.052;2023-08-06T09:57:54;13.55;;;8.80;;
65996;SDS011;52765;52.258;21.052;2023-08-06T10:00:21;9.95;;;7.95;;
65996;SDS011;52765;52.258;21.052;2023-08-06T10:02:48;14.07;;;8.02;;
65996;SDS011;52765;52.258;21.052;2023-08-06T10:05:14;9.70;;;6.72;;
65996;SDS011;52765;52.258;21.052;2023-08-06T10:07:41;11.13;;;6.72;;
65996;SDS011;52765;52.258;21.052;2023-08-06T10:10:08;12.38;;;9.02;;
65996;SDS011;52765;52.258;21.052;2023-08-06T10:12:34;8.77;;;6.60;;
65996;SDS011;52765;52.258;21.052;2023-08-06T10:15:13;10.38;;;6.78;;
65996;SDS011;52765;52.258;21.052;2023-08-06T10:17:42;8.63;;;5.85;;
65996;SDS011;52765;52.258;21.052;2023-08-06T10:20:10;8.85;;;6.53;;
65996;SDS011;52765;52.258;21.052;2023-08-06T10:22:42;10.00;;;6.32;;
65996;SDS011;52765;52.258;21.052;2023-08-06T10:25:10;8.27;;;6.15;;
65996;SDS011;52765;52.258;21.052;2023-08-06T10:38:02;7.70;;;6.00;;
65996;SDS011;52765;52.258;21.052;2023-08-06T10:40:28;8.02;;;7.10;;
65996;SDS011;52765;52.258;21.052;2023-08-06T10:42:56;8.07;;;6.07;;
65996;SDS011;52765;52.258;21.052;2023-08-06T10:45:24;9.32;;;5.65;;
65996;SDS011;52765;52.258;21.052;2023-08-06T10:47:53;13.15;;;5.25;;
65996;SDS011;52765;52.258;21.052;2023-08-06T10:50:19;8.30;;;5.50;;
65996;SDS011;52765;52.258;21.052;2023-08-06T10:52:45;6.78;;;6.07;;
65996;SDS011;52765;52.258;21.052;2023-08-06T10:55:12;9.88;;;6.60;;
65996;SDS011;52765;52.258;21.052;2023-08-06T10:57:38;7.50;;;6.10;;
65996;SDS011;52765;52.258;21.052;2023-08-06T11:00:07;8.48;;;5.50;;
65996;SDS011;52765;52.258;21.052;2023-08-06T11:02:34;9.82;;;5.38;;
65996;SDS011;52765;52.258;21.052;2023-08-06T11:05:09;7.43;;;5.30;;
65996;SDS011;52765;52.258;21.052;2023-08-06T11:07:36;9.27;;;5.60;;
65996;SDS011;52765;52.258;21.052;2023-08-06T11:10:02;11.73;;;5.22;;
65996;SDS011;52765;52.258;21.052;2023-08-06T11:12:35;10.68;;;5.13;;
65996;SDS011;52765;52.258;21.052;2023-08-06T11:15:03;6.22;;;5.50;;
65996;SDS011;52765;52.258;21.052;2023-08-06T11:17:30;9.23;;;6.20;;
65996;SDS011;52765;52.258;21.052;2023-08-06T11:20:00;7.95;;;5.53;;
65996;SDS011;52765;52.258;21.052;2023-08-06T11:22:29;5.70;;;5.10;;
65996;SDS011;52765;52.258;21.052;2023-08-06T11:24:55;6.53;;;5.75;;
65996;SDS011;52765;52.258;21.052;2023-08-06T11:27:21;8.38;;;6.60;;
65996;SDS011;52765;52.258;21.052;2023-08-06T11:29:46;9.68;;;6.03;;
65996;SDS011;52765;52.258;21.052;2023-08-06T11:32:12;10.20;;;5.22;;
65996;SDS011;52765;52.258;21.052;2023-08-06T11:34:38;7.65;;;5.20;;
65996;SDS011;52765;52.258;21.052;2023-08-06T11:37:04;8.65;;;5.07;;
65996;SDS011;52765;52.258;21.052;2023-08-06T11:39:33;7.43;;;5.70;;
65996;SDS011;52765;52.258;21.052;2023-08-06T11:42:02;7.75;;;4.75;;
65996;SDS011;52765;52.258;21.052;2023-08-06T11:44:32;6.85;;;5.78;;
65996;SDS011;52765;52.258;21.052;2023-08-06T11:47:00;11.68;;;6.00;;
65996;SDS011;52765;52.258;21.052;2023-08-06T11:54:44;7.53;;;6.13;;
65996;SDS011;52765;52.258;21.052;2023-08-06T11:57:24;7.40;;;5.97;;
65996;SDS011;52765;52.258;21.052;2023-08-06T11:59:49;7.93;;;5.15;;
65996;SDS011;52765;52.258;21.052;2023-08-06T12:02:15;7.65;;;5.70;;
65996;SDS011;52765;52.258;21.052;2023-08-06T12:07:27;7.53;;;5.30;;
65996;SDS011;52765;52.258;21.052;2023-08-06T12:09:54;9.50;;;5.82;;
65996;SDS011;52765;52.258;21.052;2023-08-06T12:12:20;6.13;;;5.53;;
65996;SDS011;52765;52.258;21.052;2023-08-06T12:14:45;7.82;;;5.88;;
65996;SDS011;52765;52.258;21.052;2023-08-06T12:17:10;11.23;;;7.35;;
65996;SDS011;52765;52.258;21.052;2023-08-06T12:19:36;22.85;;;12.82;;
65996;SDS011;52765;52.258;21.052;2023-08-06T12:22:01;82.15;;;51.95;;
65996;SDS011;52765;52.258;21.052;2023-08-06T12:24:28;177.85;;;106.57;;
65996;SDS011;52765;52.258;21.052;2023-08-06T12:26:56;346.52;;;215.60;;
65996;SDS011;52765;52.258;21.052;2023-08-06T12:29:22;454.25;;;298.30;;
65996;SDS011;52765;52.258;21.052;2023-08-06T12:31:51;393.42;;;261.52;;
65996;SDS011;52765;52.258;21.052;2023-08-06T12:34:17;219.50;;;144.77;;
65996;SDS011;52765;52.258;21.052;2023-08-06T12:36:42;334.38;;;199.38;;
65996;SDS011;52765;52.258;21.052;2023-08-06T12:39:07;489.38;;;303.45;;
65996;SDS011;52765;52.258;21.052;2023-08-06T12:41:33;322.35;;;178.55;;
65996;SDS011;52765;52.258;21.052;2023-08-06T12:43:58;297.95;;;146.40;;
65996;SDS011;52765;52.258;21.052;2023-08-06T12:46:23;447.80;;;220.68;;
65996;SDS011;52765;52.258;21.052;2023-08-06T12:48:49;378.13;;;174.38;;
65996;SDS011;52765;52.258;21.052;2023-08-06T12:51:14;437.23;;;208.40;;
65996;SDS011;52765;52.258;21.052;2023-08-06T12:53:40;271.80;;;129.35;;
65996;SDS011;52765;52.258;21.052;2023-08-06T12:56:05;363.85;;;160.10;;
65996;SDS011;52765;52.258;21.052;2023-08-06T12:58:30;427.23;;;200.48;;
65996;SDS011;52765;52.258;21.052;2023-08-06T13:00:56;476.52;;;233.50;;
65996;SDS011;52765;52.258;21.052;2023-08-06T13:03:21;595.80;;;317.33;;
65996;SDS011;52765;52.258;21.052;2023-08-06T13:05:47;583.03;;;316.17;;
65996;SDS011;52765;52.258;21.052;2023-08-06T13:08:12;244.15;;;120.10;;
65996;SDS011;52765;52.258;21.052;2023-08-06T13:10:38;218.07;;;107.82;;
65996;SDS011;52765;52.258;21.052;2023-08-06T13:13:03;158.93;;;72.20;;
65996;SDS011;52765;52.258;21.052;2023-08-06T13:15:29;241.38;;;103.63;;
65996;SDS011;52765;52.258;21.052;2023-08-06T13:17:54;234.25;;;98.60;;
65996;SDS011;52765;52.258;21.052;2023-08-06T13:20:21;369.85;;;153.75;;
65996;SDS011;52765;52.258;21.052;2023-08-06T13:22:48;249.32;;;102.63;;
65996;SDS011;52765;52.258;21.052;2023-08-06T13:25:18;349.65;;;138.43;;
65996;SDS011;52765;52.258;21.052;2023-08-06T13:27:44;365.42;;;142.90;;
65996;SDS011;52765;52.258;21.052;2023-08-06T13:30:10;427.75;;;166.20;;
65996;SDS011;52765;52.258;21.052;2023-08-06T13:32:36;489.08;;;192.18;;
65996;SDS011;52765;52.258;21.052;2023-08-06T13:35:03;312.00;;;116.93;;
65996;SDS011;52765;52.258;21.052;2023-08-06T13:37:29;258.20;;;92.88;;
65996;SDS011;52765;52.258;21.052;2023-08-06T13:39:54;228.38;;;76.38;;
65996;SDS011;52765;52.258;21.052;2023-08-06T13:42:20;242.88;;;88.32;;
65996;SDS011;52765;52.258;21.052;2023-08-06T13:44:45;383.67;;;133.15;;
65996;SDS011;52765;52.258;21.052;2023-08-06T13:47:11;255.85;;;91.13;;
65996;SDS011;52765;52.258;21.052;2023-08-06T13:49:37;143.38;;;52.40;;
65996;SDS011;52765;52.258;21.052;2023-08-06T13:52:02;113.10;;;43.70;;
65996;SDS011;52765;52.258;21.052;2023-08-06T13:54:27;114.93;;;49.33;;
65996;SDS011;52765;52.258;21.052;2023-08-06T13:56:53;124.05;;;55.47;;
65996;SDS011;52765;52.258;21.052;2023-08-06T13:59:19;275.50;;;122.50;;
65996;SDS011;52765;52.258;21.052;2023-08-06T14:01:45;176.52;;;88.32;;
65996;SDS011;52765;52.258;21.052;2023-08-06T14:04:11;108.85;;;57.60;;
65996;SDS011;52765;52.258;21.052;2023-08-06T14:06:38;145.40;;;75.55;;
65996;SDS011;52765;52.258;21.052;2023-08-06T14:09:03;181.35;;;97.38;;
65996;SDS011;52765;52.258;21.052;2023-08-06T14:11:29;106.20;;;58.72;;
65996;SDS011;52765;52.258;21.052;2023-08-06T14:13:55;147.20;;;76.15;;
65996;SDS011;52765;52.258;21.052;2023-08-06T14:16:20;90.13;;;49.72;;
65996;SDS011;52765;52.258;21.052;2023-08-06T14:18:46;164.13;;;88.68;;
65996;SDS011;52765;52.258;21.052;2023-08-06T14:21:12;229.48;;;125.05;;
65996;SDS011;52765;52.258;21.052;2023-08-06T14:23:41;115.53;;;71.03;;
65996;SDS011;52765;52.258;21.052;2023-08-06T14:26:06;68.72;;;40.97;;
65996;SDS011;52765;52.258;21.052;2023-08-06T14:28:32;233.48;;;123.03;;
65996;SDS011;52765;52.258;21.052;2023-08-06T14:30:58;223.73;;;117.18;;